Time;durP1;ratioP1;P1;durP2;ratioP2;P2;SDS_P1;SDS_P2;PMS_P1;PMS_P2;Temp;Humidity;BMP_temperature;BMP_pressure;BME280_temperature;BME280_humidity;BME280_pressure;Samples;Min_cycle;Max_cycle;Signal;HPM_P1;HPM_P2
2021/01/16 00:00:54;;;;;;;;;;;;;;;-9.39;72.30;100126.34;1799560;78;20271;-83
2021/01/16 00:03:22;;;;;;;;;;;;;;;-9.48;72.34;100124.10;1790883;78;20277;-81
2021/01/16 00:05:52;;;;;;;;;;;;;;;-9.54;72.40;100125.97;1795288;78;20265;-86
2021/01/16 00:08:20;;;;;;;;;;;;;;;-9.53;72.52;100125.49;1797728;79;21373;-83
2021/01/16 00:10:55;;;;;;;;;;;;;;;-9.49;72.50;100126.84;1799973;78;20285;-82
2021/01/16 00:13:28;;;;;;;;;;;;;;;-9.48;72.50;100112.47;1792539;79;20278;-81
2021/01/16 00:15:55;;;;;;;;;;;;;;;-9.46;72.52;100118.33;1802547;78;20275;-81
2021/01/16 00:18:24;;;;;;;;;;;;;;;-9.48;72.53;100113.77;1797159;78;20340;-83
2021/01/16 00:20:56;;;;;;;;;;;;;;;-9.56;72.51;100109.77;1802626;78;21647;-85
2021/01/16 00:23:26;;;;;;;;;;;;;;;-9.60;72.61;100116.18;1797003;78;20780;-81
2021/01/16 00:25:53;;;;;;;;;;;;;;;-9.62;72.65;100118.55;1796177;79;20973;-85
2021/01/16 00:28:26;;;;;;;;;;;;;;;-9.60;72.71;100118.77;1800058;79;20265;-81
2021/01/16 00:30:54;;;;;;;;;;;;;;;-9.53;72.75;100115.16;1768618;79;20198;-79
2021/01/16 00:33:24;;;;;;;;;;;;;;;-9.56;72.66;100115.42;1790620;78;21143;-83
2021/01/16 00:35:53;;;;;;;;;;;;;;;-9.64;72.65;100108.82;1799589;78;20281;-82
2021/01/16 00:38:21;;;;;;;;;;;;;;;-9.69;72.74;100107.95;1818230;78;20251;-83
2021/01/16 00:40:49;;;;;;;;;;;;;;;-9.66;72.79;100099.11;1810933;78;20261;-81
2021/01/16 00:43:16;;;;;;;;;;;;;;;-9.70;72.79;100101.97;1785634;78;20903;-82
2021/01/16 00:45:45;;;;;;;;;;;;;;;-9.75;72.83;100101.55;1793589;79;21833;-82
2021/01/16 00:48:16;;;;;;;;;;;;;;;-9.79;72.93;100100.20;1807693;78;20270;-84
2021/01/16 00:50:46;;;;;;;;;;;;;;;-9.82;72.99;100101.77;1795879;78;20285;-83
2021/01/16 00:53:14;;;;;;;;;;;;;;;-9.83;73.06;100101.44;1790007;78;20379;-83
2021/01/16 00:55:54;;;;;;;;;;;;;;;-9.78;73.17;100103.12;1788927;78;20308;-84
2021/01/16 00:58:22;;;;;;;;;;;;;;;-9.73;73.19;100100.14;1796992;79;21345;-83
2021/01/16 01:00:52;;;;;;;;;;;;;;;-9.74;73.22;100099.33;1806430;78;20245;-83
2021/01/16 01:03:23;;;;;;;;;;;;;;;-9.64;73.30;100101.06;1806359;78;20409;-83
2021/01/16 01:05:51;;;;;;;;;;;;;;;-9.58;73.12;100105.20;1790834;79;20280;-85
2021/01/16 01:08:29;;;;;;;;;;;;;;;-9.58;72.93;100104.39;1800320;79;20281;-83
2021/01/16 01:10:57;;;;;;;;;;;;;;;-9.63;72.86;100102.72;1665281;78;10000058;-82
2021/01/16 01:13:25;;;;;;;;;;;;;;;-9.66;72.77;100109.45;1797712;79;20224;-85
2021/01/16 01:15:53;;;;;;;;;;;;;;;-9.66;72.71;100106.39;1796552;79;20277;-81
2021/01/16 01:18:20;;;;;;;;;;;;;;;-9.66;72.54;100105.58;1777104;79;20635;-86
2021/01/16 01:20:47;;;;;;;;;;;;;;;-9.78;72.23;100095.84;1785976;78;21254;-85
2021/01/16 01:23:15;;;;;;;;;;;;;;;-9.91;72.31;100101.28;1827628;78;20326;-84
2021/01/16 01:25:42;;;;;;;;;;;;;;;-9.98;72.30;100097.14;1803453;78;20269;-81
2021/01/16 01:28:09;;;;;;;;;;;;;;;-10.01;72.23;100103.05;1794753;78;20282;-81
2021/01/16 01:30:36;;;;;;;;;;;;;;;-10.04;72.20;100106.72;1791293;79;20228;-84
2021/01/16 01:33:09;;;;;;;;;;;;;;;-10.04;72.07;100119.63;1794009;78;21325;-84
2021/01/16 01:35:46;;;;;;;;;;;;;;;-10.05;72.01;100115.42;1787095;79;20476;-75
2021/01/16 01:38:19;;;;;;;;;;;;;;;-10.10;72.04;100121.94;1753948;81;20278;-75
2021/01/16 01:40:46;;;;;;;;;;;;;;;-10.11;71.96;100116.44;1755429;80;22066;-75
2021/01/16 01:43:13;;;;;;;;;;;;;;;-10.18;71.71;100125.20;1765765;79;20319;-75
2021/01/16 01:45:41;;;;;;;;;;;;;;;-10.32;71.45;100115.30;1774147;79;20295;-75
2021/01/16 01:48:10;;;;;;;;;;;;;;;-10.47;71.38;100118.23;1779501;79;20710;-75
2021/01/16 01:50:38;;;;;;;;;;;;;;;-10.62;71.50;100113.60;1776962;78;20316;-74
2021/01/16 01:53:05;;;;;;;;;;;;;;;-10.70;71.66;100114.23;1777228;79;21136;-75
2021/01/16 01:55:33;;;;;;;;;;;;;;;-10.72;71.74;100113.56;1761900;78;20398;-75
2021/01/16 01:58:02;;;;;;;;;;;;;;;-10.74;71.78;100116.73;1765522;79;20330;-75
2021/01/16 02:00:30;;;;;;;;;;;;;;;-10.82;71.82;100117.84;1739767;79;20319;-74
2021/01/16 02:03:00;;;;;;;;;;;;;;;-10.89;71.81;100125.29;1767832;79;20285;-75
2021/01/16 02:05:28;;;;;;;;;;;;;;;-10.99;71.85;100129.59;1737134;79;22395;-75
2021/01/16 02:07:57;;;;;;;;;;;;;;;-11.10;71.90;100130.02;1767439;79;20282;-76
2021/01/16 02:10:24;;;;;;;;;;;;;;;-11.17;71.96;100134.53;1617898;81;9999850;-73
2021/01/16 02:12:56;;;;;;;;;;;;;;;-11.28;72.07;100135.43;1764821;79;20303;-74
2021/01/16 02:15:45;;;;;;;;;;;;;;;-11.31;72.22;100135.68;1768106;79;21370;-74
2021/01/16 02:18:29;;;;;;;;;;;;;;;-11.31;72.31;100134.39;1760500;79;20600;-75
2021/01/16 02:20:57;;;;;;;;;;;;;;;-11.29;72.38;100141.52;1765998;79;20286;-75
2021/01/16 02:23:34;;;;;;;;;;;;;;;-11.26;72.46;100141.26;1761370;79;20279;-74
2021/01/16 02:26:29;;;;;;;;;;;;;;;-11.17;72.49;100148.72;1765832;79;21099;-74
2021/01/16 02:29:08;;;;;;;;;;;;;;;-11.13;72.46;100157.34;1763994;81;22711;-74
2021/01/16 02:31:56;;;;;;;;;;;;;;;-11.04;72.50;100145.94;1788051;78;20289;-76
2021/01/16 02:34:35;;;;;;;;;;;;;;;-10.99;72.45;100147.20;1752568;80;20292;-75
2021/01/16 02:37:24;;;;;;;;;;;;;;;-10.92;72.52;100140.58;1761658;80;20288;-74
2021/01/16 02:40:20;;;;;;;;;;;;;;;-10.78;72.56;100137.30;1763434;80;20564;-75
2021/01/16 02:43:13;;;;;;;;;;;;;;;-10.64;72.47;100144.68;1760241;80;21399;-75
2021/01/16 02:45:47;;;;;;;;;;;;;;;-10.51;72.32;100141.87;1719136;81;20273;-75
2021/01/16 02:48:23;;;;;;;;;;;;;;;-10.47;72.14;100142.76;1782905;79;20508;-74
2021/01/16 02:50:53;;;;;;;;;;;;;;;-10.46;72.06;100146.19;1768343;79;20292;-74
2021/01/16 02:53:23;;;;;;;;;;;;;;;-10.49;71.93;100149.84;1766865;81;20218;-74
2021/01/16 02:55:51;;;;;;;;;;;;;;;-10.53;71.77;100145.86;1760159;81;21388;-75
2021/01/16 02:58:19;;;;;;;;;;;;;;;-10.54;71.70;100153.75;1769394;81;20239;-75
2021/01/16 03:00:46;;;;;;;;;;;;;;;-10.53;71.61;100148.92;1770069;79;20295;-75
2021/01/16 03:03:14;;;;;;;;;;;;;;;-10.48;71.62;100146.30;1763758;80;20751;-75
2021/01/16 03:05:41;;;;;;;;;;;;;;;-10.42;71.48;100151.42;1788451;79;20229;-75
2021/01/16 03:08:09;;;;;;;;;;;;;;;-10.41;71.17;100151.75;1771695;79;21969;-74
2021/01/16 03:10:36;;;;;;;;;;;;;;;-10.42;70.59;100156.58;1738924;79;20558;-75
2021/01/16 03:13:04;;;;;;;;;;;;;;;-10.53;69.81;100162.64;1768406;79;20312;-73
2021/01/16 03:15:32;;;;;;;;;;;;;;;-10.64;68.93;100166.14;1766560;79;20594;-74
2021/01/16 03:18:00;;;;;;;;;;;;;;;-10.72;67.94;100156.95;1763107;79;20307;-74
2021/01/16 03:20:29;;;;;;;;;;;;;;;-10.81;67.50;100155.63;1770711;79;22848;-74
2021/01/16 03:23:01;;;;;;;;;;;;;;;-10.93;66.89;100154.88;1759817;79;20251;-74
2021/01/16 03:25:30;;;;;;;;;;;;;;;-11.00;66.61;100158.91;1762099;81;20220;-74
2021/01/16 03:27:58;;;;;;;;;;;;;;;-11.10;66.24;100162.25;1769695;80;20271;-74
2021/01/16 03:30:25;;;;;;;;;;;;;;;-11.16;65.88;100160.17;1767853;79;20289;-73
2021/01/16 03:32:53;;;;;;;;;;;;;;;-11.25;65.60;100152.38;1765857;79;21198;-74
2021/01/16 03:35:21;;;;;;;;;;;;;;;-11.31;65.41;100155.02;1766211;81;21013;-73
2021/01/16 03:37:50;;;;;;;;;;;;;;;-11.36;65.34;100154.09;1774525;79;20241;-73
2021/01/16 03:40:18;;;;;;;;;;;;;;;-11.40;65.39;100156.58;1765108;79;20212;-75
2021/01/16 03:42:46;;;;;;;;;;;;;;;-11.42;65.23;100160.22;1767193;80;20291;-75
2021/01/16 03:45:16;;;;;;;;;;;;;;;-11.44;65.25;100160.83;1762057;79;21362;-75
2021/01/16 03:47:44;;;;;;;;;;;;;;;-11.44;65.23;100149.23;1792045;80;20209;-75
2021/01/16 03:50:12;;;;;;;;;;;;;;;-11.45;65.24;100153.58;1757333;80;20296;-74
2021/01/16 03:52:39;;;;;;;;;;;;;;;-11.43;65.48;100153.44;1774168;78;20228;-73
2021/01/16 03:55:09;;;;;;;;;;;;;;;-11.45;65.64;100159.17;1788531;79;20289;-74
2021/01/16 03:57:37;;;;;;;;;;;;;;;-11.49;65.77;100159.90;1760090;80;21193;-74
2021/01/16 04:00:07;;;;;;;;;;;;;;;-11.55;65.51;100178.42;1784645;78;20206;-74
2021/01/16 04:02:35;;;;;;;;;;;;;;;-11.64;65.11;100180.01;1759699;80;20242;-74
2021/01/16 04:05:04;;;;;;;;;;;;;;;-11.72;65.11;100185.41;1767830;79;20228;-74
2021/01/16 04:07:31;;;;;;;;;;;;;;;-11.79;65.14;100190.23;1750768;81;20519;-73
2021/01/16 04:10:00;;;;;;;;;;;;;;;-11.83;65.12;100210.27;1767572;79;22767;-75
2021/01/16 04:12:28;;;;;;;;;;;;;;;-11.91;65.27;100198.96;1754924;79;20224;-74
2021/01/16 04:14:56;;;;;;;;;;;;;;;-12.00;65.20;100207.44;1765352;79;20259;-74
2021/01/16 04:17:23;;;;;;;;;;;;;;;-12.04;65.33;100214.59;1770119;79;20264;-74
2021/01/16 04:19:51;;;;;;;;;;;;;;;-12.11;65.42;100210.83;1767839;79;21166;-74
2021/01/16 04:22:20;;;;;;;;;;;;;;;-12.14;65.58;100209.78;1768118;79;21439;-75
2021/01/16 04:24:47;;;;;;;;;;;;;;;-12.18;65.66;100208.39;1766523;79;20204;-75
2021/01/16 04:27:14;;;;;;;;;;;;;;;-12.24;65.80;100198.56;1770422;81;20203;-74
2021/01/16 04:29:42;;;;;;;;;;;;;;;-12.30;66.01;100220.47;1769781;79;20260;-75
2021/01/16 04:32:09;;;;;;;;;;;;;;;-12.41;66.11;100208.88;1769564;79;20228;-74
2021/01/16 04:34:37;;;;;;;;;;;;;;;-12.53;66.13;100208.89;1765943;80;21420;-74
2021/01/16 04:37:04;;;;;;;;;;;;;;;-12.66;66.09;100214.63;1768051;79;20216;-75
2021/01/16 04:39:31;;;;;;;;;;;;;;;-12.77;66.23;100221.02;1767862;79;20487;-73
2021/01/16 04:41:58;;;;;;;;;;;;;;;-12.93;66.17;100225.67;1769140;80;20216;-75
2021/01/16 04:44:26;;;;;;;;;;;;;;;-13.04;66.44;100228.58;1766994;79;20268;-74
2021/01/16 04:46:53;;;;;;;;;;;;;;;-13.13;66.58;100238.25;1767012;79;21237;-73
2021/01/16 04:49:20;;;;;;;;;;;;;;;-13.19;66.75;100236.16;1768816;80;20494;-74
2021/01/16 04:51:48;;;;;;;;;;;;;;;-13.20;66.98;100237.53;1738146;81;20299;-74
2021/01/16 04:54:16;;;;;;;;;;;;;;;-13.29;67.12;100240.33;1767329;80;20279;-74
2021/01/16 04:56:46;;;;;;;;;;;;;;;-13.37;67.33;100241.37;1766887;81;20290;-74
2021/01/16 04:59:14;;;;;;;;;;;;;;;-13.47;67.47;100248.92;1767564;79;20742;-74
2021/01/16 05:01:41;;;;;;;;;;;;;;;-13.58;67.29;100248.88;1769493;79;20215;-74
2021/01/16 05:04:09;;;;;;;;;;;;;;;-13.64;67.41;100244.99;1759496;79;20603;-75
2021/01/16 05:06:40;;;;;;;;;;;;;;;-13.74;67.42;100242.73;1769115;81;20305;-74
2021/01/16 05:09:08;;;;;;;;;;;;;;;-13.82;67.15;100249.66;1767939;79;20271;-74
2021/01/16 05:11:46;;;;;;;;;;;;;;;-13.94;67.33;100246.70;1769760;79;21440;-74
2021/01/16 05:14:16;;;;;;;;;;;;;;;-14.01;67.35;100251.44;1737414;81;20454;-74
2021/01/16 05:16:57;;;;;;;;;;;;;;;-14.05;67.52;100251.28;1768618;79;20423;-75
2021/01/16 05:19:27;;;;;;;;;;;;;;;-14.09;67.71;100252.42;1770703;79;20240;-73
2021/01/16 05:21:55;;;;;;;;;;;;;;;-14.12;67.84;100264.65;1770161;80;20255;-75
2021/01/16 05:24:22;;;;;;;;;;;;;;;-14.19;67.91;100260.41;1768858;80;21597;-76
2021/01/16 05:27:04;;;;;;;;;;;;;;;-14.20;67.95;100266.00;1765659;79;20271;-75
2021/01/16 05:29:34;;;;;;;;;;;;;;;-14.25;67.91;100262.92;1749397;81;20196;-73
2021/01/16 05:32:03;;;;;;;;;;;;;;;-14.28;67.94;100263.16;1775691;79;20210;-74
2021/01/16 05:34:32;;;;;;;;;;;;;;;-14.29;67.97;100264.06;1769674;80;20236;-75
2021/01/16 05:36:59;;;;;;;;;;;;;;;-14.30;67.98;100273.98;1765893;79;22702;-74
2021/01/16 05:39:31;;;;;;;;;;;;;;;-14.30;68.03;100279.57;1761589;81;20620;-74
2021/01/16 05:42:01;;;;;;;;;;;;;;;-14.36;68.05;100277.42;1768916;80;20507;-75
2021/01/16 05:44:29;;;;;;;;;;;;;;;-14.44;68.05;100282.61;1745773;79;20515;-75
2021/01/16 05:46:57;;;;;;;;;;;;;;;-14.55;68.07;100279.96;1766758;79;20196;-76
2021/01/16 05:49:26;;;;;;;;;;;;;;;-14.62;68.24;100274.08;1768975;79;22291;-75
2021/01/16 05:51:54;;;;;;;;;;;;;;;-14.61;68.43;100268.02;1769620;79;20313;-75
2021/01/16 05:54:23;;;;;;;;;;;;;;;-14.60;68.59;100278.66;1769836;79;20303;-74
2021/01/16 05:56:51;;;;;;;;;;;;;;;-14.62;68.50;100277.92;1765726;80;20635;-74
2021/01/16 05:59:19;;;;;;;;;;;;;;;-14.62;68.38;100287.71;1740507;81;20467;-73
2021/01/16 06:01:51;;;;;;;;;;;;;;;-14.64;68.47;100293.86;1769462;80;22384;-73
2021/01/16 06:04:20;;;;;;;;;;;;;;;-14.66;68.63;100296.53;1768673;79;20232;-74
2021/01/16 06:06:48;;;;;;;;;;;;;;;-14.70;68.75;100291.27;1764629;80;20283;-75
2021/01/16 06:09:19;;;;;;;;;;;;;;;-14.70;68.90;100302.80;1769344;80;20737;-75
2021/01/16 06:11:49;;;;;;;;;;;;;;;-14.69;69.03;100308.28;1773489;79;20264;-73
2021/01/16 06:14:18;;;;;;;;;;;;;;;-14.67;69.06;100314.13;1739542;81;22341;-74
2021/01/16 06:16:51;;;;;;;;;;;;;;;-14.64;69.02;100323.34;1765075;79;20322;-73
2021/01/16 06:19:21;;;;;;;;;;;;;;;-14.63;68.96;100323.26;1786079;78;20289;-75
2021/01/16 06:21:50;;;;;;;;;;;;;;;-14.59;68.94;100336.23;1770041;78;20316;-75
2021/01/16 06:24:22;;;;;;;;;;;;;;;-14.56;68.96;100333.93;1752044;80;20254;-74
2021/01/16 06:27:00;;;;;;;;;;;;;;;-14.54;68.93;100337.19;1783746;78;21202;-75
2021/01/16 06:29:32;;;;;;;;;;;;;;;-14.52;68.83;100337.45;1746797;80;20296;-74
2021/01/16 06:32:07;;;;;;;;;;;;;;;-14.49;68.87;100349.23;1750276;80;20528;-75
2021/01/16 06:34:43;;;;;;;;;;;;;;;-14.47;68.88;100353.81;1769592;79;20310;-74
2021/01/16 06:37:12;;;;;;;;;;;;;;;-14.42;68.93;100351.28;1756186;79;20526;-75
2021/01/16 06:39:42;;;;;;;;;;;;;;;-14.34;68.78;100358.48;1761491;79;21367;-73
2021/01/16 06:42:14;;;;;;;;;;;;;;;-14.31;68.75;100358.72;1756230;80;20299;-75
2021/01/16 06:44:42;;;;;;;;;;;;;;;-14.31;68.64;100371.55;1733633;79;20312;-75
2021/01/16 06:47:10;;;;;;;;;;;;;;;-14.35;68.49;100376.52;1787913;79;20571;-75
2021/01/16 06:49:37;;;;;;;;;;;;;;;-14.35;68.42;100376.06;1783015;78;20985;-74
2021/01/16 06:52:06;;;;;;;;;;;;;;;-14.42;68.18;100377.39;1784550;78;21412;-75
2021/01/16 06:54:35;;;;;;;;;;;;;;;-14.50;67.93;100379.19;1777858;78;20702;-76
2021/01/16 06:57:12;;;;;;;;;;;;;;;-14.61;67.99;100382.11;1783207;78;20261;-75
2021/01/16 06:59:44;;;;;;;;;;;;;;;-14.63;68.13;100378.38;1783998;78;20214;-75
2021/01/16 07:02:32;;;;;;;;;;;;;;;-14.60;68.20;100379.93;1755656;80;20235;-74
2021/01/16 07:05:18;;;;;;;;;;;;;;;-14.53;68.18;100383.27;1750018;80;21396;-74
2021/01/16 07:07:51;;;;;;;;;;;;;;;-14.46;67.90;100398.58;1752408;80;20403;-74
2021/01/16 07:10:22;;;;;;;;;;;;;;;-14.47;67.91;100398.22;1760624;81;20214;-74
2021/01/16 07:12:51;;;;;;;;;;;;;;;-14.52;67.65;100401.56;1785089;80;20218;-75
2021/01/16 07:15:19;;;;;;;;;;;;;;;-14.62;67.48;100394.58;1770145;80;20233;-74
2021/01/16 07:17:48;;;;;;;;;;;;;;;-14.69;67.45;100398.82;1747164;80;20514;-74
2021/01/16 07:20:15;;;;;;;;;;;;;;;-14.68;67.51;100400.92;1789644;78;20856;-75
2021/01/16 07:22:44;;;;;;;;;;;;;;;-14.63;67.42;100405.30;1781941;80;20267;-76
2021/01/16 07:25:16;;;;;;;;;;;;;;;-14.62;67.24;100403.09;1788285;79;20210;-76
2021/01/16 07:27:43;;;;;;;;;;;;;;;-14.55;67.20;100410.73;1788986;78;20332;-75
2021/01/16 07:30:12;;;;;;;;;;;;;;;-14.48;66.71;100416.27;1755628;80;21210;-76
2021/01/16 07:32:46;;;;;;;;;;;;;;;-14.44;66.54;100417.27;1745488;80;20231;-75
2021/01/16 07:35:22;;;;;;;;;;;;;;;-14.40;66.46;100418.34;1752876;80;20262;-76
2021/01/16 07:37:52;;;;;;;;;;;;;;;-14.38;66.35;100421.61;1751200;80;20310;-75
2021/01/16 07:40:23;;;;;;;;;;;;;;;-14.31;66.24;100424.13;1777675;78;20770;-74
2021/01/16 07:42:58;;;;;;;;;;;;;;;-14.24;65.69;100416.41;1759606;80;21370;-76
2021/01/16 07:45:27;;;;;;;;;;;;;;;-14.29;64.68;100412.03;1754299;80;20496;-74
2021/01/16 07:47:57;;;;;;;;;;;;;;;-14.36;64.31;100417.22;1781622;78;20277;-75
2021/01/16 07:50:30;;;;;;;;;;;;;;;-14.38;64.15;100422.89;1794620;79;20214;-76
2021/01/16 07:52:59;;;;;;;;;;;;;;;-14.32;63.93;100427.16;1747405;80;20278;-75
2021/01/16 07:55:40;;;;;;;;;;;;;;;-14.24;63.32;100434.38;1762293;81;21367;-75
2021/01/16 07:58:35;;;;;;;;;;;;;;;-14.23;62.88;100426.56;1762233;80;20300;-74
2021/01/16 08:01:17;;;;;;;;;;;;;;;-14.19;62.61;100423.33;1758955;80;20290;-75
2021/01/16 08:04:00;;;;;;;;;;;;;;;-14.10;62.30;100432.99;1774041;78;21134;-75
2021/01/16 08:06:34;;;;;;;;;;;;;;;-14.08;61.82;100433.72;1755708;80;20250;-74
2021/01/16 08:09:08;;;;;;;;;;;;;;;-14.07;61.51;100437.10;1762130;80;21209;-74
2021/01/16 08:11:36;;;;;;;;;;;;;;;-14.09;61.48;100437.19;1758945;80;20238;-74
2021/01/16 08:14:05;;;;;;;;;;;;;;;-14.10;61.68;100439.88;1760707;80;20503;-74
2021/01/16 08:16:33;;;;;;;;;;;;;;;-14.14;61.60;100431.56;1759596;80;20212;-75
2021/01/16 08:19:08;;;;;;;;;;;;;;;-14.19;61.42;100431.03;1790341;78;20258;-75
2021/01/16 08:21:36;;;;;;;;;;;;;;;-14.23;61.21;100429.59;1753053;80;22048;-76
2021/01/16 08:24:04;;;;;;;;;;;;;;;-14.21;61.28;100428.58;1778082;78;20214;-75
2021/01/16 08:26:32;;;;;;;;;;;;;;;-14.21;61.35;100438.02;1748310;80;20209;-76
2021/01/16 08:29:00;;;;;;;;;;;;;;;-14.26;60.82;100427.23;1782163;78;20276;-74
2021/01/16 08:31:29;;;;;;;;;;;;;;;-14.26;60.82;100436.20;1784350;78;20245;-75
2021/01/16 08:33:57;;;;;;;;;;;;;;;-14.30;60.40;100427.89;1778750;78;21380;-76
2021/01/16 08:36:27;;;;;;;;;;;;;;;-14.34;60.69;100431.59;1781166;78;20564;-76
2021/01/16 08:38:55;;;;;;;;;;;;;;;-14.26;60.76;100433.64;1783310;78;20290;-75
2021/01/16 08:41:26;;;;;;;;;;;;;;;-14.29;60.21;100430.81;1708470;81;20221;-76
2021/01/16 08:43:57;;;;;;;;;;;;;;;-14.34;60.25;100434.16;1754571;80;20210;-76
2021/01/16 08:46:34;;;;;;;;;;;;;;;-14.38;60.08;100437.00;1762364;79;22236;-77
2021/01/16 08:49:14;;;;;;;;;;;;;;;-14.42;60.39;100434.63;1758779;79;20291;-75
2021/01/16 08:51:44;;;;;;;;;;;;;;;-14.31;60.59;100434.39;1761233;79;20495;-74
2021/01/16 08:54:17;;;;;;;;;;;;;;;-14.26;59.94;100438.30;1764385;79;20902;-73
2021/01/16 08:56:48;;;;;;;;;;;;;;;-14.26;60.37;100439.59;1762126;79;20283;-73
2021/01/16 08:59:18;;;;;;;;;;;;;;;-14.14;60.58;100443.11;1762923;79;21318;-72
2021/01/16 09:01:50;;;;;;;;;;;;;;;-14.07;59.97;100441.77;1763088;79;20504;-73
2021/01/16 09:04:23;;;;;;;;;;;;;;;-14.03;59.59;100445.77;1774703;79;20216;-76
2021/01/16 09:06:54;;;;;;;;;;;;;;;-14.07;59.68;100438.39;1769530;79;20223;-73
2021/01/16 09:09:26;;;;;;;;;;;;;;;-14.05;59.38;100449.35;1758341;79;20265;-74
2021/01/16 09:12:04;;;;;;;;;;;;;;;-14.03;58.68;100453.94;1765016;80;21359;-72
2021/01/16 09:14:31;;;;;;;;;;;;;;;-14.03;58.95;100452.66;1770502;79;20292;-74
2021/01/16 09:17:22;;;;;;;;;;;;;;;-14.03;58.74;100445.77;1758456;79;20330;-74
2021/01/16 09:19:57;;;;;;;;;;;;;;;-14.05;58.48;100454.02;1760984;79;21150;-74
2021/01/16 09:22:30;;;;;;;;;;;;;;;-14.01;58.72;100455.48;1767426;79;20297;-74
2021/01/16 09:25:22;;;;;;;;;;;;;;;-13.97;58.27;100444.55;1762839;79;21412;-73
2021/01/16 09:27:53;;;;;;;;;;;;;;;-13.95;58.63;100444.81;1751905;79;20507;-75
2021/01/16 09:30:22;;;;;;;;;;;;;;;-13.89;58.55;100446.59;1766193;79;20287;-74
2021/01/16 09:32:49;;;;;;;;;;;;;;;-13.84;58.58;100447.12;1766289;79;20352;-76
2021/01/16 09:35:36;;;;;;;;;;;;;;;-13.74;58.20;100448.14;1768667;79;20271;-78
2021/01/16 09:38:16;;;;;;;;;;;;;;;-13.68;57.83;100448.20;1768321;79;22712;-76
2021/01/16 09:40:44;;;;;;;;;;;;;;;-13.66;57.76;100449.71;1763387;79;20253;-76
2021/01/16 09:43:22;;;;;;;;;;;;;;;-13.59;57.77;100442.41;1767613;79;20295;-76
2021/01/16 09:45:55;;;;;;;;;;;;;;;-13.45;57.60;100447.44;1753291;81;21241;-75
2021/01/16 09:48:46;;;;;;;;;;;;;;;-13.30;57.39;100439.12;1769389;79;20394;-76
2021/01/16 09:51:13;;;;;;;;;;;;;;;-13.16;57.70;100438.97;1769635;79;21371;-74
2021/01/16 09:53:42;;;;;;;;;;;;;;;-12.94;57.12;100439.55;1766997;79;20617;-75
2021/01/16 09:56:10;;;;;;;;;;;;;;;-12.83;56.30;100437.48;1765106;79;20337;-76
2021/01/16 09:58:42;;;;;;;;;;;;;;;-12.96;56.21;100444.43;1762182;79;20752;-75
2021/01/16 10:01:15;;;;;;;;;;;;;;;-13.07;55.87;100448.58;1764767;79;20637;-75
2021/01/16 10:03:46;;;;;;;;;;;;;;;-13.16;55.87;100443.27;1764944;79;21273;-76
2021/01/16 10:06:18;;;;;;;;;;;;;;;-13.15;56.04;100437.22;1763388;79;20314;-75
2021/01/16 10:08:47;;;;;;;;;;;;;;;-13.21;56.10;100435.07;1763271;79;20506;-77
2021/01/16 10:11:16;;;;;;;;;;;;;;;-13.16;56.43;100435.12;1762849;79;20284;-77
2021/01/16 10:13:47;;;;;;;;;;;;;;;-13.10;56.04;100442.37;1761399;79;20275;-77
2021/01/16 10:16:14;;;;;;;;;;;;;;;-13.18;55.65;100432.29;1767421;79;21143;-76
2021/01/16 10:18:42;;;;;;;;;;;;;;;-13.29;55.83;100436.46;1764389;79;20291;-76
2021/01/16 10:21:11;;;;;;;;;;;;;;;-13.31;56.52;100432.35;1761690;79;20357;-77
2021/01/16 10:23:42;;;;;;;;;;;;;;;-13.27;56.28;100431.20;1760178;79;20295;-77
2021/01/16 10:26:14;;;;;;;;;;;;;;;-13.25;55.81;100417.33;1766640;79;20264;-81
2021/01/16 10:28:50;;;;;;;;;;;;;;;-13.23;56.24;100412.84;1763189;79;21586;-79
2021/01/16 10:31:24;;;;;;;;;;;;;;;-13.15;56.19;100420.04;1766183;79;20218;-79
2021/01/16 10:33:52;;;;;;;;;;;;;;;-13.03;55.87;100420.47;1762917;79;20297;-78
2021/01/16 10:36:19;;;;;;;;;;;;;;;-12.89;56.71;100419.95;1715203;81;20306;-80
2021/01/16 10:38:52;;;;;;;;;;;;;;;-12.82;55.88;100416.00;1762358;79;20301;-79
2021/01/16 10:41:34;;;;;;;;;;;;;;;-12.90;56.08;100411.39;1764769;80;22492;-75
2021/01/16 10:44:08;;;;;;;;;;;;;;;-12.95;56.10;100407.53;1764096;79;21208;-77
2021/01/16 10:46:39;;;;;;;;;;;;;;;-12.94;56.61;100413.02;1766325;79;20319;-78
2021/01/16 10:49:15;;;;;;;;;;;;;;;-12.84;56.57;100416.56;1765364;79;20247;-79
2021/01/16 10:51:51;;;;;;;;;;;;;;;-12.81;56.16;100420.20;1771027;79;20290;-76
2021/01/16 10:54:20;;;;;;;;;;;;;;;-12.81;55.76;100408.16;1754886;79;22039;-78
2021/01/16 10:57:07;;;;;;;;;;;;;;;-12.83;55.82;100413.05;1768232;79;20306;-79
2021/01/16 10:59:38;;;;;;;;;;;;;;;-12.74;56.47;100409.02;1757980;80;20272;-78
2021/01/16 11:02:11;;;;;;;;;;;;;;;-12.63;55.87;100415.50;1786597;78;20277;-78
2021/01/16 11:04:40;;;;;;;;;;;;;;;-12.70;55.02;100418.95;1787867;79;21454;-77
2021/01/16 11:07:11;;;;;;;;;;;;;;;-12.87;55.20;100419.36;1789284;78;21467;-77
2021/01/16 11:09:42;;;;;;;;;;;;;;;-12.97;55.81;100417.09;1791252;78;20191;-78
2021/01/16 11:12:09;;;;;;;;;;;;;;;-12.93;56.09;100413.36;1758347;79;20560;-79
2021/01/16 11:14:42;;;;;;;;;;;;;;;-12.79;56.14;100414.50;1794060;78;20268;-80
2021/01/16 11:17:11;;;;;;;;;;;;;;;-12.74;55.66;100404.69;1781915;80;20225;-78
2021/01/16 11:19:40;;;;;;;;;;;;;;;-12.75;55.59;100404.34;1786835;78;22270;-78
2021/01/16 11:22:10;;;;;;;;;;;;;;;-12.72;55.58;100412.30;1785685;80;20468;-78
2021/01/16 11:24:53;;;;;;;;;;;;;;;-12.80;54.28;100398.25;1778659;79;20648;-78
2021/01/16 11:27:29;;;;;;;;;;;;;;;-12.96;55.03;100405.86;1781953;80;20245;-79
2021/01/16 11:30:19;;;;;;;;;;;;;;;-13.06;54.44;100419.40;1791373;79;20281;-79
2021/01/16 11:32:46;;;;;;;;;;;;;;;-13.25;54.99;100404.48;1779590;80;21344;-78
2021/01/16 11:35:14;;;;;;;;;;;;;;;-13.32;55.07;100401.17;1789521;80;20514;-79
2021/01/16 11:37:50;;;;;;;;;;;;;;;-13.35;55.52;100424.50;1793329;78;20222;-80
2021/01/16 11:40:27;;;;;;;;;;;;;;;-13.34;55.35;100408.97;1748459;80;20296;-79
2021/01/16 11:43:02;;;;;;;;;;;;;;;-13.34;55.72;100409.44;1773071;81;20219;-78
2021/01/16 11:45:30;;;;;;;;;;;;;;;-13.28;56.10;100402.13;1764413;79;22150;-78
2021/01/16 11:47:59;;;;;;;;;;;;;;;-13.27;55.55;100400.37;1774543;79;20205;-79
2021/01/16 11:50:29;;;;;;;;;;;;;;;-13.30;55.75;100398.01;1767964;79;20255;-76
2021/01/16 11:53:08;;;;;;;;;;;;;;;-13.24;56.00;100393.23;1772089;79;20278;-75
2021/01/16 11:55:35;;;;;;;;;;;;;;;-13.14;56.20;100397.25;1774333;79;20231;-76
2021/01/16 11:58:04;;;;;;;;;;;;;;;-13.07;56.68;100388.64;1768737;79;20661;-78
2021/01/16 12:00:33;;;;;;;;;;;;;;;-13.01;56.90;100382.59;1769174;79;20302;-77
2021/01/16 12:03:06;;;;;;;;;;;;;;;-12.95;56.08;100384.39;1757983;79;20281;-79
2021/01/16 12:05:36;;;;;;;;;;;;;;;-12.96;55.89;100391.72;1755000;79;20275;-80
2021/01/16 12:08:09;;;;;;;;;;;;;;;-12.98;55.71;100381.56;1763036;80;20231;-78
2021/01/16 12:10:50;;;;;;;;;;;;;;;-13.01;55.90;100392.88;1754508;80;21831;-78
2021/01/16 12:13:26;;;;;;;;;;;;;;;-13.01;55.82;100387.73;1754911;80;20305;-78
2021/01/16 12:15:54;;;;;;;;;;;;;;;-13.03;55.75;100410.63;1750593;80;20291;-76
2021/01/16 12:18:22;;;;;;;;;;;;;;;-13.07;55.96;100395.07;1761309;80;20264;-76
2021/01/16 12:20:51;;;;;;;;;;;;;;;-13.05;55.95;100396.61;1726646;80;20294;-77
2021/01/16 12:23:19;;;;;;;;;;;;;;;-13.05;55.60;100401.75;1757029;80;21253;-77
2021/01/16 12:25:51;;;;;;;;;;;;;;;-13.08;55.64;100431.52;1754628;80;20266;-76
2021/01/16 12:28:24;;;;;;;;;;;;;;;-13.12;55.89;100416.44;1777188;78;20317;-76
2021/01/16 12:30:51;;;;;;;;;;;;;;;-13.20;56.09;100410.53;1782079;78;20293;-74
2021/01/16 12:33:25;;;;;;;;;;;;;;;-13.18;56.60;100415.11;1780201;78;20290;-76
2021/01/16 12:35:52;;;;;;;;;;;;;;;-13.16;56.53;100417.56;1751369;80;21225;-76
2021/01/16 12:38:20;;;;;;;;;;;;;;;-13.16;56.88;100422.70;1773576;80;20297;-76
2021/01/16 12:40:47;;;;;;;;;;;;;;;-13.12;56.56;100429.29;1758069;80;20207;-78
2021/01/16 12:43:18;;;;;;;;;;;;;;;-13.17;56.18;100431.35;1758296;80;20303;-78
2021/01/16 12:45:47;;;;;;;;;;;;;;;-13.22;56.54;100431.69;1760981;80;20291;-77
2021/01/16 12:48:15;;;;;;;;;;;;;;;-13.18;56.50;100425.39;1761841;80;20971;-75